Terminal Aerodrome Forecast
Issued by NWS

Home | Current Version | Previous Version | Graphics & Text | Print | Product List | Glossary On
Versions: 1 2 3 4 5 6 7 8 9 10 11 12 13 14 15 16 17
601
FTUS45 KGGW 281130
TAFSDY
TAF
KSDY 281130Z 2812/2912 29010KT P6SM FEW140
     FM281500 30014G23KT P6SM FEW130
     FM281800 33021G31KT P6SM SCT090
     FM290300 34010KT P6SM FEW110=

USA.gov is the U.S. government's official web portal to all federal, state and local government web resources and services.